createdAt,value
2017-11-21T00:01:55.019Z,7.20
2017-11-21T00:04:22.501Z,7.20
2017-11-21T00:06:49.980Z,7.20
2017-11-21T00:09:18.223Z,7.00
2017-11-21T00:11:45.694Z,7.00
2017-11-21T00:14:13.170Z,7.10
2017-11-21T00:16:41.408Z,7.20
2017-11-21T00:19:08.886Z,7.10
2017-11-21T00:21:36.363Z,7.10
2017-11-21T00:24:04.609Z,7.10
2017-11-21T00:26:32.081Z,7.00
2017-11-21T00:28:59.555Z,7.10
2017-11-21T00:31:27.798Z,7.00
2017-11-21T00:33:55.275Z,7.00
2017-11-21T00:36:22.751Z,7.00
2017-11-21T00:38:50.994Z,7.00
2017-11-21T00:41:18.577Z,6.90
2017-11-21T00:43:47.074Z,7.00
2017-11-21T00:46:15.389Z,7.00
2017-11-21T00:48:43.803Z,6.80
2017-11-21T00:51:11.278Z,6.80
2017-11-21T00:53:38.754Z,7.00
2017-11-21T00:56:06.991Z,7.00
2017-11-21T00:58:34.558Z,7.00
2017-11-21T01:01:02.154Z,7.00
2017-11-21T01:03:30.637Z,6.90
2017-11-21T01:05:58.926Z,6.90
2017-11-21T01:08:26.579Z,6.90
2017-11-21T01:10:55.144Z,6.80
2017-11-21T01:13:22.670Z,6.80
2017-11-21T01:15:50.455Z,6.90
2017-11-21T01:18:18.129Z,6.90
2017-11-21T01:20:45.608Z,6.80
2017-11-21T01:23:14.122Z,7.00
2017-11-21T01:25:41.639Z,6.90
2017-11-21T01:28:09.882Z,7.00
2017-11-21T01:30:37.369Z,7.00
2017-11-21T01:33:04.842Z,7.00
2017-11-21T01:35:33.079Z,6.90
2017-11-21T01:38:00.558Z,6.90
2017-11-21T01:40:28.033Z,6.80
2017-11-21T01:42:56.281Z,6.90
2017-11-21T01:45:23.751Z,6.80
2017-11-21T01:47:51.223Z,7.00
2017-11-21T01:50:19.461Z,6.80
2017-11-21T01:52:46.934Z,6.80
2017-11-21T01:55:14.407Z,6.80
2017-11-21T01:57:41.878Z,6.80
2017-11-21T02:00:10.114Z,6.90
2017-11-21T02:02:37.590Z,6.80
2017-11-21T02:05:05.213Z,6.80
2017-11-21T02:07:32.689Z,6.90
2017-11-21T02:10:00.170Z,6.90
2017-11-21T02:12:27.647Z,6.80
2017-11-21T02:14:55.890Z,6.70
2017-11-21T02:17:23.363Z,6.60
2017-11-21T02:19:50.837Z,6.60
2017-11-21T02:22:18.311Z,6.70
2017-11-21T02:24:46.553Z,6.70
2017-11-21T02:27:14.029Z,6.70
2017-11-21T02:29:41.511Z,6.70
2017-11-21T02:32:09.750Z,6.80
2017-11-21T02:34:38.731Z,6.60
2017-11-21T02:37:06.207Z,6.60
2017-11-21T02:39:33.831Z,6.70
2017-11-21T02:42:01.312Z,6.70
2017-11-21T02:44:28.782Z,6.60
2017-11-21T02:46:56.262Z,6.70
2017-11-21T02:49:24.508Z,6.70
2017-11-21T02:51:51.982Z,6.70
2017-11-21T02:54:19.460Z,6.70
2017-11-21T02:56:47.699Z,6.60
2017-11-21T02:59:15.170Z,6.60
2017-11-21T03:01:42.644Z,6.60
2017-11-21T03:04:10.118Z,6.60
2017-11-21T03:06:38.354Z,6.60
2017-11-21T03:09:05.833Z,6.50
2017-11-21T03:11:33.308Z,6.60
2017-11-21T03:14:01.555Z,6.50
2017-11-21T03:16:29.032Z,6.50
2017-11-21T03:18:56.514Z,6.50
2017-11-21T03:21:36.670Z,6.60
2017-11-21T03:24:16.201Z,6.60
2017-11-21T03:26:44.446Z,6.50
2017-11-21T03:29:11.927Z,6.40
2017-11-21T03:31:40.165Z,6.40
2017-11-21T03:34:07.639Z,6.30
2017-11-21T03:36:35.118Z,6.50
2017-11-21T03:39:03.375Z,6.60
2017-11-21T03:41:30.863Z,6.60
2017-11-21T03:43:59.103Z,6.50
2017-11-21T03:46:26.573Z,6.40
2017-11-21T03:48:54.047Z,6.60
2017-11-21T03:51:21.523Z,6.60
2017-11-21T03:53:49.765Z,6.70
2017-11-21T03:56:17.249Z,6.70
2017-11-21T03:58:45.490Z,6.70
2017-11-21T04:01:12.962Z,6.70
2017-11-21T04:03:40.441Z,6.80
2017-11-21T04:06:08.685Z,6.80
2017-11-21T04:08:36.153Z,6.70
2017-11-21T04:11:03.627Z,6.80
2017-11-21T04:13:31.111Z,6.80
2017-11-21T04:15:59.356Z,6.90
2017-11-21T04:18:26.830Z,6.80
2017-11-21T04:20:55.069Z,6.90
2017-11-21T04:23:22.550Z,6.90
2017-11-21T04:25:50.031Z,6.80
2017-11-21T04:28:18.276Z,6.80
2017-11-21T04:30:46.522Z,6.80
2017-11-21T04:33:13.995Z,6.80
2017-11-21T04:35:41.478Z,6.90
2017-11-21T04:38:08.958Z,6.80
2017-11-21T04:40:37.195Z,6.80
2017-11-21T04:43:04.673Z,6.70
2017-11-21T04:45:32.151Z,6.70
2017-11-21T04:48:00.391Z,6.60
2017-11-21T04:50:27.865Z,6.60
2017-11-21T04:52:55.338Z,6.60
2017-11-21T04:55:23.583Z,6.80
2017-11-21T04:57:51.060Z,6.70
2017-11-21T05:00:18.539Z,6.70
2017-11-21T05:02:46.786Z,6.80
2017-11-21T05:05:14.263Z,6.70
2017-11-21T05:07:41.739Z,6.70
2017-11-21T05:10:09.988Z,6.70
2017-11-21T05:12:37.474Z,6.70
2017-11-21T05:15:05.723Z,6.70
2017-11-21T05:17:33.202Z,6.70
2017-11-21T05:20:01.445Z,6.60
2017-11-21T05:22:28.930Z,6.60
2017-11-21T05:24:56.406Z,6.60
2017-11-21T05:27:24.644Z,6.70
2017-11-21T05:29:52.114Z,6.60
2017-11-21T05:32:31.633Z,6.60
2017-11-21T05:34:59.108Z,6.60
2017-11-21T05:37:26.583Z,6.50
2017-11-21T05:39:54.062Z,6.50
2017-11-21T05:42:21.562Z,6.50
2017-11-21T05:44:49.043Z,6.50
2017-11-21T05:47:16.522Z,6.60
2017-11-21T05:49:44.771Z,6.50
2017-11-21T05:52:12.243Z,6.40
2017-11-21T05:54:39.714Z,6.50
2017-11-21T05:57:07.959Z,6.40
2017-11-21T05:59:35.439Z,6.40
2017-11-21T06:02:02.914Z,6.50
2017-11-21T06:04:31.150Z,6.50
2017-11-21T06:06:58.626Z,6.50
2017-11-21T06:09:26.101Z,6.40
2017-11-21T06:11:53.570Z,6.30
2017-11-21T06:14:21.815Z,6.20
2017-11-21T06:16:49.286Z,6.10
2017-11-21T06:19:16.762Z,6.00
2017-11-21T06:21:45.009Z,6.00
2017-11-21T06:24:12.490Z,6.00
2017-11-21T06:26:40.730Z,5.80
2017-11-21T06:29:08.206Z,5.70
2017-11-21T06:31:35.682Z,5.60
2017-11-21T06:34:03.925Z,5.50
2017-11-21T06:36:31.399Z,5.40
2017-11-21T06:38:59.641Z,5.50
2017-11-21T06:41:27.114Z,5.50
2017-11-21T06:43:54.593Z,5.60
2017-11-21T06:46:23.974Z,5.50
2017-11-21T06:48:51.450Z,5.50
2017-11-21T06:51:18.950Z,5.60
2017-11-21T06:53:47.191Z,5.70
2017-11-21T06:56:14.670Z,5.70
2017-11-21T06:58:42.912Z,6.00
2017-11-21T07:01:10.390Z,5.90
2017-11-21T07:03:37.871Z,6.10
2017-11-21T07:06:06.117Z,6.30
2017-11-21T07:08:33.589Z,6.30
2017-11-21T07:11:01.079Z,6.40
2017-11-21T07:13:28.575Z,6.40
2017-11-21T07:15:56.038Z,6.40
2017-11-21T07:18:23.518Z,6.50
2017-11-21T07:20:51.033Z,6.40
2017-11-21T07:23:18.506Z,6.40
2017-11-21T07:25:46.015Z,6.50
2017-11-21T07:28:14.263Z,6.50
2017-11-21T07:30:42.095Z,6.50
2017-11-21T07:33:09.579Z,6.50
2017-11-21T07:35:37.055Z,6.60
2017-11-21T07:38:05.299Z,6.70
2017-11-21T07:40:32.772Z,6.60
2017-11-21T07:43:00.251Z,6.70
2017-11-21T07:45:27.731Z,6.80
2017-11-21T07:47:55.969Z,6.90
2017-11-21T07:50:23.442Z,6.90
2017-11-21T07:52:50.922Z,7.00
2017-11-21T07:55:19.162Z,7.00
2017-11-21T07:57:46.635Z,7.00
2017-11-21T08:00:14.115Z,7.10
2017-11-21T08:02:42.359Z,7.30
2017-11-21T08:05:09.839Z,7.30
2017-11-21T08:07:37.321Z,7.30
2017-11-21T08:10:05.563Z,7.20
2017-11-21T08:12:33.046Z,7.20
2017-11-21T08:15:01.290Z,7.50
2017-11-21T08:17:28.765Z,7.40
2017-11-21T08:19:57.748Z,7.40
2017-11-21T08:22:25.246Z,7.40
2017-11-21T08:24:53.481Z,7.50
2017-11-21T08:27:20.955Z,7.50
2017-11-21T08:29:48.431Z,7.60
2017-11-21T08:32:16.670Z,7.60
2017-11-21T08:34:44.148Z,7.60
2017-11-21T08:37:12.410Z,7.60
2017-11-21T08:39:39.894Z,7.50
2017-11-21T08:42:07.366Z,7.70
2017-11-21T08:44:35.603Z,8.00
2017-11-21T08:47:03.077Z,7.90
2017-11-21T08:49:30.563Z,8.00
2017-11-21T08:51:58.806Z,8.10
2017-11-21T08:54:26.286Z,8.00
2017-11-21T08:56:54.555Z,8.20
2017-11-21T08:59:22.039Z,8.10
2017-11-21T09:01:49.526Z,8.20
2017-11-21T09:04:17.002Z,8.30
2017-11-21T09:06:44.483Z,8.30
2017-11-21T09:09:11.958Z,8.30
2017-11-21T09:11:40.206Z,8.30
2017-11-21T09:14:07.687Z,8.30
2017-11-21T09:16:35.179Z,8.30
2017-11-21T09:19:02.658Z,8.40
2017-11-21T09:21:30.137Z,8.40
2017-11-21T09:23:57.626Z,8.50
2017-11-21T09:26:25.865Z,8.80
2017-11-21T09:28:53.346Z,8.70
2017-11-21T09:31:20.828Z,8.70
2017-11-21T09:33:49.073Z,9.50
2017-11-21T09:36:16.550Z,9.40
2017-11-21T09:38:44.812Z,9.00
2017-11-21T09:41:12.293Z,9.00
2017-11-21T09:43:40.546Z,9.10
2017-11-21T09:46:08.021Z,9.00
2017-11-21T09:48:35.499Z,9.00
2017-11-21T09:51:03.746Z,9.10
2017-11-21T09:53:31.225Z,9.00
2017-11-21T09:55:59.468Z,9.10
2017-11-21T09:58:26.951Z,9.00
2017-11-21T10:00:54.427Z,9.30
2017-11-21T10:03:22.670Z,9.10
2017-11-21T10:05:50.149Z,9.10
2017-11-21T10:08:17.622Z,9.30
2017-11-21T10:10:45.871Z,9.30
2017-11-21T10:13:13.351Z,9.30
2017-11-21T10:15:41.593Z,9.30
2017-11-21T10:18:09.074Z,9.30
2017-11-21T10:20:36.549Z,9.30
2017-11-21T10:23:04.798Z,9.30
2017-11-21T10:25:32.280Z,9.20
2017-11-21T10:28:00.534Z,9.60
2017-11-21T10:30:28.011Z,9.50
2017-11-21T10:32:56.272Z,9.40
2017-11-21T10:35:23.754Z,9.40
2017-11-21T10:37:52.017Z,9.60
2017-11-21T10:40:19.490Z,9.50
2017-11-21T10:42:47.743Z,9.70
2017-11-21T10:45:15.227Z,9.70
2017-11-21T10:47:43.497Z,10.00
2017-11-21T10:50:11.747Z,10.00
2017-11-21T10:52:40.026Z,10.00
2017-11-21T10:55:07.505Z,9.90
2017-11-21T10:57:35.776Z,10.00
2017-11-21T11:00:03.259Z,9.90
2017-11-21T11:02:31.519Z,10.20
2017-11-21T11:04:59.775Z,10.10
2017-11-21T11:07:27.262Z,10.10
2017-11-21T11:09:55.502Z,10.30
2017-11-21T11:12:22.986Z,10.20
2017-11-21T11:14:50.469Z,10.30
2017-11-21T11:17:18.722Z,10.30
2017-11-21T11:19:46.206Z,10.30
2017-11-21T11:22:13.696Z,10.50
2017-11-21T11:24:41.178Z,10.50
2017-11-21T11:27:08.667Z,10.50
2017-11-21T11:29:36.935Z,10.70
2017-11-21T11:32:05.187Z,10.60
2017-11-21T11:34:32.673Z,10.60
2017-11-21T11:37:00.918Z,10.60
2017-11-21T11:39:28.415Z,10.60
2017-11-21T11:41:56.670Z,10.70
2017-11-21T11:44:24.151Z,10.60
2017-11-21T11:46:52.402Z,10.90
2017-11-21T11:49:19.888Z,10.80
2017-11-21T11:51:48.138Z,11.00
2017-11-21T11:54:15.641Z,10.90
2017-11-21T11:56:43.882Z,10.90
2017-11-21T11:59:11.366Z,10.90
2017-11-21T12:01:39.614Z,11.00
2017-11-21T12:04:07.104Z,10.90
2017-11-21T12:06:34.605Z,11.00
2017-11-21T12:09:02.098Z,11.10
2017-11-21T12:11:29.579Z,11.20
2017-11-21T12:13:57.830Z,11.10
2017-11-21T12:16:25.330Z,11.10
2017-11-21T12:18:52.812Z,11.10
2017-11-21T12:21:20.298Z,11.10
2017-11-21T12:23:47.783Z,11.10
2017-11-21T12:26:16.040Z,11.10
2017-11-21T12:28:43.522Z,11.10
2017-11-21T12:31:11.767Z,11.20
2017-11-21T12:33:39.246Z,11.10
2017-11-21T12:36:07.506Z,11.40
2017-11-21T12:38:34.998Z,11.40
2017-11-21T12:41:03.246Z,11.30
2017-11-21T12:43:30.726Z,11.20
2017-11-21T12:45:58.973Z,11.30
2017-11-21T12:48:26.455Z,11.20
2017-11-21T12:50:54.748Z,11.40
2017-11-21T12:53:22.993Z,11.50
2017-11-21T12:55:50.470Z,11.50
2017-11-21T12:58:18.725Z,11.60
2017-11-21T13:00:46.210Z,11.60
2017-11-21T13:03:15.306Z,11.60
2017-11-21T13:05:43.929Z,11.80
2017-11-21T13:08:11.856Z,11.80
2017-11-21T13:10:40.026Z,11.80
2017-11-21T13:13:07.810Z,11.70
2017-11-21T13:15:37.248Z,11.70
2017-11-21T13:18:05.162Z,11.60
2017-11-21T13:20:33.335Z,11.70
2017-11-21T13:23:01.364Z,11.70
2017-11-21T13:25:29.534Z,11.70
2017-11-21T13:27:57.769Z,11.90
2017-11-21T13:30:26.753Z,11.80
2017-11-21T13:32:54.572Z,11.80
2017-11-21T13:35:22.861Z,11.90
2017-11-21T13:37:50.819Z,11.80
2017-11-21T13:40:19.918Z,11.80
2017-11-21T13:42:48.502Z,11.70
2017-11-21T13:45:17.082Z,11.70
2017-11-21T13:47:46.474Z,11.80
2017-11-21T13:50:14.729Z,11.70
2017-11-21T13:52:44.222Z,11.80
2017-11-21T13:55:12.414Z,11.70
2017-11-21T13:57:40.662Z,11.70
2017-11-21T14:00:08.142Z,11.70
2017-11-21T14:02:54.073Z,11.70
2017-11-21T14:05:37.357Z,11.70
2017-11-21T14:08:04.839Z,11.80
2017-11-21T14:10:33.091Z,11.70
2017-11-21T14:13:00.593Z,11.70
2017-11-21T14:15:28.075Z,11.70
2017-11-21T14:17:55.563Z,11.70
2017-11-21T14:20:23.056Z,11.80
2017-11-21T14:22:50.546Z,11.70
2017-11-21T14:25:18.034Z,11.70
2017-11-21T14:27:46.285Z,11.80
2017-11-21T14:30:13.772Z,11.70
2017-11-21T14:32:41.247Z,11.80
2017-11-21T14:35:09.490Z,11.80
2017-11-21T14:37:36.978Z,11.70
2017-11-21T14:40:04.454Z,11.80
2017-11-21T14:42:32.703Z,11.90
2017-11-21T14:45:00.237Z,11.80
2017-11-21T14:47:27.718Z,11.80
2017-11-21T14:49:55.197Z,11.80
2017-11-21T14:52:23.464Z,11.80
2017-11-21T14:54:50.950Z,11.70
2017-11-21T14:57:18.436Z,11.80
2017-11-21T14:59:45.914Z,11.80
2017-11-21T15:02:13.394Z,11.70
2017-11-21T15:04:40.874Z,11.70
2017-11-21T15:07:09.117Z,11.70
2017-11-21T15:09:36.600Z,11.60
2017-11-21T15:12:04.856Z,11.60
2017-11-21T15:14:32.341Z,11.60
2017-11-21T15:17:00.594Z,11.60
2017-11-21T15:19:29.591Z,11.70
2017-11-21T15:21:57.075Z,11.70
2017-11-21T15:24:25.321Z,11.60
2017-11-21T15:26:52.902Z,11.60
2017-11-21T15:29:20.378Z,11.60
2017-11-21T15:31:48.633Z,11.70
2017-11-21T15:34:17.619Z,11.60
2017-11-21T15:36:45.100Z,11.50
2017-11-21T15:39:13.352Z,11.50
2017-11-21T15:41:40.831Z,11.40
2017-11-21T15:44:09.092Z,11.50
2017-11-21T15:46:36.580Z,11.40
2017-11-21T15:49:04.831Z,11.40
2017-11-21T15:51:32.318Z,11.40
2017-11-21T15:54:00.573Z,11.40
2017-11-21T15:56:28.056Z,11.40
2017-11-21T15:58:55.534Z,11.40
2017-11-21T16:01:23.038Z,11.30
2017-11-21T16:03:50.522Z,11.20
2017-11-21T16:06:18.769Z,11.10
2017-11-21T16:08:46.250Z,11.00
2017-11-21T16:11:14.507Z,11.10
2017-11-21T16:13:41.994Z,11.10
2017-11-21T16:16:10.239Z,11.10
2017-11-21T16:18:37.768Z,11.10
2017-11-21T16:21:05.255Z,11.00
2017-11-21T16:23:32.734Z,11.00
2017-11-21T16:26:00.210Z,10.90
2017-11-21T16:28:28.470Z,10.90
2017-11-21T16:30:55.949Z,10.90
2017-11-21T16:33:24.198Z,11.00
2017-11-21T16:35:51.717Z,11.00
2017-11-21T16:38:19.195Z,10.90
2017-11-21T16:40:46.679Z,10.90
2017-11-21T16:43:14.157Z,11.00
2017-11-21T16:45:42.402Z,10.90
2017-11-21T16:48:10.650Z,10.90
2017-11-21T16:50:38.134Z,10.80
2017-11-21T16:53:05.622Z,10.90
2017-11-21T16:55:33.870Z,10.80
2017-11-21T16:58:01.381Z,10.80
2017-11-21T17:00:28.891Z,10.80
2017-11-21T17:02:56.380Z,10.70
2017-11-21T17:05:24.627Z,10.50
2017-11-21T17:07:52.114Z,10.50
2017-11-21T17:10:20.388Z,10.50
2017-11-21T17:12:47.883Z,10.50
2017-11-21T17:15:15.365Z,10.40
2017-11-21T17:17:42.846Z,10.40
2017-11-21T17:20:10.328Z,10.40
2017-11-21T17:22:38.590Z,10.40
2017-11-21T17:25:06.091Z,10.30
2017-11-21T17:27:33.569Z,10.40
2017-11-21T17:30:01.049Z,10.20
2017-11-21T17:32:28.535Z,10.30
2017-11-21T17:34:56.783Z,10.20
2017-11-21T17:37:24.271Z,10.20
2017-11-21T17:39:52.521Z,10.20
2017-11-21T17:42:20.849Z,10.10
2017-11-21T17:44:48.330Z,10.20
2017-11-21T17:47:15.815Z,10.10
2017-11-21T17:49:43.304Z,10.10
2017-11-21T17:52:11.558Z,10.10
2017-11-21T17:54:39.063Z,10.10
2017-11-21T17:57:06.543Z,10.10
2017-11-21T17:59:34.026Z,10.00
2017-11-21T18:02:01.513Z,10.00
2017-11-21T18:04:29.758Z,9.90
2017-11-21T18:06:58.062Z,9.90
2017-11-21T18:09:27.264Z,10.00
2017-11-21T18:11:55.375Z,9.90
2017-11-21T18:14:23.047Z,10.00
2017-11-21T18:16:51.023Z,10.00
2017-11-21T18:19:19.312Z,10.00
2017-11-21T18:21:47.906Z,9.80
2017-11-21T18:24:16.849Z,9.90
2017-11-21T18:26:44.326Z,9.90
2017-11-21T18:29:11.806Z,9.90
2017-11-21T18:31:39.289Z,9.90
2017-11-21T18:34:06.766Z,9.80
2017-11-21T18:36:35.011Z,9.90
2017-11-21T18:39:02.485Z,9.90
2017-11-21T18:41:31.462Z,9.70
2017-11-21T18:43:58.942Z,9.70
2017-11-21T18:46:26.430Z,9.70
2017-11-21T18:48:53.911Z,9.70
2017-11-21T18:51:21.391Z,9.70
2017-11-21T18:53:48.870Z,9.70
2017-11-21T18:56:16.370Z,9.70
2017-11-21T18:58:43.847Z,9.70
2017-11-21T19:01:11.328Z,9.70
2017-11-21T19:03:38.809Z,9.60
2017-11-21T19:06:06.291Z,9.60
2017-11-21T19:08:34.542Z,9.60
2017-11-21T19:11:02.032Z,9.60
2017-11-21T19:13:30.278Z,9.70
2017-11-21T19:15:57.751Z,9.60
2017-11-21T19:18:26.012Z,9.80
2017-11-21T19:20:53.489Z,9.70
2017-11-21T19:23:21.746Z,9.80
2017-11-21T19:25:49.229Z,9.80
2017-11-21T19:28:17.503Z,9.70
2017-11-21T19:30:45.746Z,9.60
2017-11-21T19:33:13.224Z,9.60
2017-11-21T19:35:40.705Z,9.60
2017-11-21T19:38:08.950Z,9.60
2017-11-21T19:40:36.438Z,9.50
2017-11-21T19:43:04.694Z,9.50
2017-11-21T19:45:32.170Z,9.50
2017-11-21T19:48:00.415Z,9.50
2017-11-21T19:50:27.893Z,9.40
2017-11-21T19:52:55.366Z,9.40
2017-11-21T19:55:23.606Z,9.40
2017-11-21T19:57:51.087Z,9.30
2017-11-21T20:00:18.581Z,9.40
2017-11-21T20:02:46.057Z,9.50
2017-11-21T20:05:13.542Z,10.10
2017-11-21T20:07:41.015Z,9.80
2017-11-21T20:10:08.501Z,9.60
2017-11-21T20:12:36.755Z,9.50
2017-11-21T20:15:05.013Z,9.60
2017-11-21T20:17:32.487Z,9.50
2017-11-21T20:19:59.967Z,9.50
2017-11-21T20:22:28.213Z,9.50
2017-11-21T20:24:55.694Z,9.40
2017-11-21T20:27:23.165Z,9.50
2017-11-21T20:29:51.406Z,9.60
2017-11-21T20:32:18.883Z,9.50
2017-11-21T20:34:47.891Z,9.50
2017-11-21T20:37:16.176Z,9.60
2017-11-21T20:39:44.423Z,9.70
2017-11-21T20:42:11.906Z,9.60
2017-11-21T20:44:40.166Z,9.70
2017-11-21T20:47:07.645Z,9.60
2017-11-21T20:49:35.894Z,9.60
2017-11-21T20:52:03.372Z,9.60
2017-11-21T20:54:31.616Z,9.60
2017-11-21T20:56:59.110Z,9.60
2017-11-21T20:59:27.744Z,9.50
2017-11-21T21:01:57.207Z,9.50
2017-11-21T21:04:26.309Z,9.60
2017-11-21T21:06:55.128Z,9.50
2017-11-21T21:09:22.610Z,9.50
2017-11-21T21:11:50.087Z,9.40
2017-11-21T21:14:17.563Z,9.40
2017-11-21T21:16:45.810Z,9.40
2017-11-21T21:19:13.294Z,9.30
2017-11-21T21:21:41.552Z,9.30
2017-11-21T21:24:09.030Z,9.30
2017-11-21T21:26:37.286Z,9.30
2017-11-21T21:29:04.763Z,9.20
2017-11-21T21:31:32.238Z,9.30
2017-11-21T21:34:00.481Z,9.30
2017-11-21T21:36:27.958Z,9.20
2017-11-21T21:38:56.206Z,9.30
2017-11-21T21:41:23.681Z,9.20
2017-11-21T21:43:51.162Z,9.40
2017-11-21T21:46:19.407Z,9.20
2017-11-21T21:48:46.886Z,9.20
2017-11-21T21:51:14.361Z,9.20
2017-11-21T21:53:42.607Z,9.20
2017-11-21T21:56:10.085Z,9.10
2017-11-21T21:58:38.335Z,9.10
2017-11-21T22:01:05.823Z,9.00
2017-11-21T22:03:34.087Z,9.10
2017-11-21T22:06:01.563Z,9.00
2017-11-21T22:08:29.811Z,9.10
2017-11-21T22:10:57.291Z,9.00
2017-11-21T22:13:25.538Z,9.20
2017-11-21T22:15:53.030Z,9.20
2017-11-21T22:18:21.277Z,9.20
2017-11-21T22:20:48.759Z,9.20
2017-11-21T22:23:17.007Z,9.20
2017-11-21T22:25:44.496Z,9.10
2017-11-21T22:28:12.753Z,9.20
2017-11-21T22:30:40.236Z,9.10
2017-11-21T22:33:08.483Z,8.90
2017-11-21T22:35:35.971Z,8.90
2017-11-21T22:38:04.217Z,8.80
2017-11-21T22:40:31.690Z,8.80
2017-11-21T22:42:59.162Z,8.80
2017-11-21T22:45:27.406Z,8.80
2017-11-21T22:47:54.882Z,8.80
2017-11-21T22:50:22.418Z,8.90
2017-11-21T22:52:49.889Z,9.00
2017-11-21T22:55:17.372Z,8.90
2017-11-21T22:57:44.851Z,9.00
2017-11-21T23:00:13.095Z,9.10
2017-11-21T23:02:40.572Z,9.00
2017-11-21T23:05:08.818Z,9.00
2017-11-21T23:07:36.291Z,8.90
2017-11-21T23:10:04.538Z,8.90
2017-11-21T23:12:32.027Z,8.90
2017-11-21T23:14:59.506Z,9.00
2017-11-21T23:17:27.750Z,9.00
2017-11-21T23:19:55.234Z,8.90
2017-11-21T23:22:23.477Z,9.00
2017-11-21T23:24:51.278Z,8.90
2017-11-21T23:27:19.814Z,9.00
2017-11-21T23:29:47.362Z,8.90
2017-11-21T23:32:14.902Z,8.90
2017-11-21T23:34:42.382Z,8.90
2017-11-21T23:37:10.168Z,8.80
2017-11-21T23:39:38.354Z,8.80
2017-11-21T23:42:06.325Z,8.80
2017-11-21T23:44:34.364Z,8.80
2017-11-21T23:47:02.391Z,8.70
2017-11-21T23:49:30.312Z,8.70
2017-11-21T23:51:58.059Z,8.70
2017-11-21T23:54:25.633Z,8.50
2017-11-21T23:56:53.170Z,8.50
2017-11-21T23:59:20.701Z,8.30
